Terminal Aerodrome Forecast
Issued by NWS

Home | Current Version | Previous Version | Text Only | Print | Product List | Glossary On
Versions: 1 2 3 4 5 6 7 8 9 10 11 12 13 14 15 16 17 18 19 20 21 22 23 24 25 26 27 28 29 30 31 32 33 34 35 36 37 38 39 40 41 42 43 44
394
FTUS45 KGJT 231740
TAFEGE
TAF
KEGE 231740Z 2318/2418 26006KT P6SM VCSH FEW050 OVC070
     FM232100 22009KT P6SM VCSH FEW030 BKN060
      TEMPO 2322/2402 3SM -SHSN BR OVC030
     FM240200 25005KT 4SM -SHSN OVC035
     FM240800 24004KT P6SM VCSH OVC035
     FM241200 26005KT P6SM BKN050=

USA.gov is the U.S. government's official web portal to all federal, state and local government web resources and services.